sensor_id;sensor_type;location;lat;lon;timestamp;temperature;humidity
25208;DHT22;13153;52.316;21.166;2023-05-10T00:00:27;8.60;84.30
25208;DHT22;13153;52.316;21.166;2023-05-10T00:02:52;8.60;84.40
25208;DHT22;13153;52.316;21.166;2023-05-10T00:05:18;8.60;84.60
25208;DHT22;13153;52.316;21.166;2023-05-10T00:07:44;8.60;84.90
25208;DHT22;13153;52.316;21.166;2023-05-10T00:10:10;8.60;85.10
25208;DHT22;13153;52.316;21.166;2023-05-10T00:12:37;8.60;84.80
25208;DHT22;13153;52.316;21.166;2023-05-10T00:15:03;8.50;85.00
25208;DHT22;13153;52.316;21.166;2023-05-10T00:17:29;8.60;84.90
25208;DHT22;13153;52.316;21.166;2023-05-10T00:19:55;8.50;85.00
25208;DHT22;13153;52.316;21.166;2023-05-10T00:22:21;8.50;85.10
25208;DHT22;13153;52.316;21.166;2023-05-10T00:24:47;8.50;85.20
25208;DHT22;13153;52.316;21.166;2023-05-10T00:27:12;8.50;85.60
25208;DHT22;13153;52.316;21.166;2023-05-10T00:29:38;8.50;85.40
25208;DHT22;13153;52.316;21.166;2023-05-10T00:32:04;8.50;85.50
25208;DHT22;13153;52.316;21.166;2023-05-10T00:34:30;8.50;85.20
25208;DHT22;13153;52.316;21.166;2023-05-10T00:36:56;8.50;85.30
25208;DHT22;13153;52.316;21.166;2023-05-10T00:39:22;8.50;85.00
25208;DHT22;13153;52.316;21.166;2023-05-10T00:41:47;8.50;85.10
25208;DHT22;13153;52.316;21.166;2023-05-10T00:44:14;8.50;85.20
25208;DHT22;13153;52.316;21.166;2023-05-10T00:46:40;8.50;85.10
25208;DHT22;13153;52.316;21.166;2023-05-10T00:49:07;8.50;84.70
25208;DHT22;13153;52.316;21.166;2023-05-10T00:51:33;8.40;84.70
25208;DHT22;13153;52.316;21.166;2023-05-10T00:53:59;8.40;84.60
25208;DHT22;13153;52.316;21.166;2023-05-10T00:56:25;8.50;84.80
25208;DHT22;13153;52.316;21.166;2023-05-10T00:58:53;8.50;84.50
25208;DHT22;13153;52.316;21.166;2023-05-10T01:01:19;8.40;84.20
25208;DHT22;13153;52.316;21.166;2023-05-10T01:03:46;8.40;84.40
25208;DHT22;13153;52.316;21.166;2023-05-10T01:06:12;8.40;84.40
25208;DHT22;13153;52.316;21.166;2023-05-10T01:08:39;8.40;84.20
25208;DHT22;13153;52.316;21.166;2023-05-10T01:11:06;8.40;84.20
25208;DHT22;13153;52.316;21.166;2023-05-10T01:13:36;8.40;84.10
25208;DHT22;13153;52.316;21.166;2023-05-10T01:16:05;8.40;84.20
25208;DHT22;13153;52.316;21.166;2023-05-10T01:18:37;8.40;84.10
25208;DHT22;13153;52.316;21.166;2023-05-10T01:21:31;8.40;83.70
25208;DHT22;13153;52.316;21.166;2023-05-10T01:24:38;8.40;83.60
25208;DHT22;13153;52.316;21.166;2023-05-10T01:30:57;8.40;83.20
25208;DHT22;13153;52.316;21.166;2023-05-10T01:34:01;8.50;83.70
25208;DHT22;13153;52.316;21.166;2023-05-10T01:36:39;8.40;83.10
25208;DHT22;13153;52.316;21.166;2023-05-10T01:42:11;8.40;82.80
25208;DHT22;13153;52.316;21.166;2023-05-10T01:45:14;8.40;83.00
25208;DHT22;13153;52.316;21.166;2023-05-10T01:48:03;8.40;82.40
25208;DHT22;13153;52.316;21.166;2023-05-10T01:50:32;8.40;82.80
25208;DHT22;13153;52.316;21.166;2023-05-10T01:53:02;8.40;82.40
25208;DHT22;13153;52.316;21.166;2023-05-10T01:55:35;8.40;82.60
25208;DHT22;13153;52.316;21.166;2023-05-10T01:58:11;8.40;82.60
25208;DHT22;13153;52.316;21.166;2023-05-10T02:00:42;8.30;82.60
25208;DHT22;13153;52.316;21.166;2023-05-10T02:03:10;8.30;83.00
25208;DHT22;13153;52.316;21.166;2023-05-10T02:05:38;8.30;82.70
25208;DHT22;13153;52.316;21.166;2023-05-10T02:08:07;8.30;82.70
25208;DHT22;13153;52.316;21.166;2023-05-10T02:10:35;8.30;82.90
25208;DHT22;13153;52.316;21.166;2023-05-10T02:13:03;8.30;82.40
25208;DHT22;13153;52.316;21.166;2023-05-10T02:15:32;8.40;82.20
25208;DHT22;13153;52.316;21.166;2023-05-10T02:18:00;8.40;82.30
25208;DHT22;13153;52.316;21.166;2023-05-10T02:20:31;8.30;82.00
25208;DHT22;13153;52.316;21.166;2023-05-10T02:22:58;8.30;82.00
25208;DHT22;13153;52.316;21.166;2023-05-10T02:25:25;8.30;81.90
25208;DHT22;13153;52.316;21.166;2023-05-10T02:27:55;8.30;81.90
25208;DHT22;13153;52.316;21.166;2023-05-10T02:30:23;8.30;82.40
25208;DHT22;13153;52.316;21.166;2023-05-10T02:32:51;8.30;82.00
25208;DHT22;13153;52.316;21.166;2023-05-10T02:35:17;8.30;82.30
25208;DHT22;13153;52.316;21.166;2023-05-10T02:37:45;8.20;82.10
25208;DHT22;13153;52.316;21.166;2023-05-10T02:40:13;8.30;82.40
25208;DHT22;13153;52.316;21.166;2023-05-10T02:42:41;8.20;82.40
25208;DHT22;13153;52.316;21.166;2023-05-10T02:45:15;8.30;82.40
25208;DHT22;13153;52.316;21.166;2023-05-10T02:47:45;8.30;82.30
25208;DHT22;13153;52.316;21.166;2023-05-10T02:50:11;8.20;82.60
25208;DHT22;13153;52.316;21.166;2023-05-10T02:52:46;8.20;82.70
25208;DHT22;13153;52.316;21.166;2023-05-10T02:55:15;8.20;83.10
25208;DHT22;13153;52.316;21.166;2023-05-10T02:57:58;8.20;83.20
25208;DHT22;13153;52.316;21.166;2023-05-10T03:00:25;8.20;82.90
25208;DHT22;13153;52.316;21.166;2023-05-10T03:02:52;8.30;83.10
25208;DHT22;13153;52.316;21.166;2023-05-10T03:05:18;8.30;82.70
25208;DHT22;13153;52.316;21.166;2023-05-10T03:07:45;8.30;82.60
25208;DHT22;13153;52.316;21.166;2023-05-10T03:10:11;8.40;82.50
25208;DHT22;13153;52.316;21.166;2023-05-10T03:18:09;8.90;85.00
25208;DHT22;13153;52.316;21.166;2023-05-10T03:20:47;9.20;84.90
25208;DHT22;13153;52.316;21.166;2023-05-10T03:25:48;9.60;85.70
25208;DHT22;13153;52.316;21.166;2023-05-10T03:28:18;10.00;84.70
25208;DHT22;13153;52.316;21.166;2023-05-10T03:30:46;10.10;83.50
25208;DHT22;13153;52.316;21.166;2023-05-10T03:33:12;10.10;82.60
25208;DHT22;13153;52.316;21.166;2023-05-10T03:35:39;10.30;82.00
25208;DHT22;13153;52.316;21.166;2023-05-10T03:38:05;10.40;80.90
25208;DHT22;13153;52.316;21.166;2023-05-10T03:40:30;10.60;80.30
25208;DHT22;13153;52.316;21.166;2023-05-10T03:42:58;10.90;80.70
25208;DHT22;13153;52.316;21.166;2023-05-10T03:45:24;11.00;79.40
25208;DHT22;13153;52.316;21.166;2023-05-10T03:47:50;11.10;78.70
25208;DHT22;13153;52.316;21.166;2023-05-10T03:50:16;11.30;77.90
25208;DHT22;13153;52.316;21.166;2023-05-10T03:52:42;11.50;76.90
25208;DHT22;13153;52.316;21.166;2023-05-10T03:55:09;11.80;76.00
25208;DHT22;13153;52.316;21.166;2023-05-10T03:57:34;12.20;75.60
25208;DHT22;13153;52.316;21.166;2023-05-10T04:00:00;12.30;74.60
25208;DHT22;13153;52.316;21.166;2023-05-10T04:02:26;12.70;73.00
25208;DHT22;13153;52.316;21.166;2023-05-10T04:04:52;13.00;72.20
25208;DHT22;13153;52.316;21.166;2023-05-10T04:07:18;13.30;70.70
25208;DHT22;13153;52.316;21.166;2023-05-10T04:09:44;13.70;69.70
25208;DHT22;13153;52.316;21.166;2023-05-10T04:12:09;14.10;68.80
25208;DHT22;13153;52.316;21.166;2023-05-10T04:14:35;14.40;67.40
25208;DHT22;13153;52.316;21.166;2023-05-10T04:17:01;14.60;66.60
25208;DHT22;13153;52.316;21.166;2023-05-10T04:19:30;14.80;65.30
25208;DHT22;13153;52.316;21.166;2023-05-10T04:21:56;15.20;64.90
25208;DHT22;13153;52.316;21.166;2023-05-10T04:24:23;15.40;64.00
25208;DHT22;13153;52.316;21.166;2023-05-10T04:26:50;15.70;62.90
25208;DHT22;13153;52.316;21.166;2023-05-10T04:29:16;15.90;62.10
25208;DHT22;13153;52.316;21.166;2023-05-10T04:31:42;16.00;61.70
25208;DHT22;13153;52.316;21.166;2023-05-10T04:34:08;16.30;60.90
25208;DHT22;13153;52.316;21.166;2023-05-10T04:36:33;16.70;59.80
25208;DHT22;13153;52.316;21.166;2023-05-10T04:39:01;16.90;58.60
25208;DHT22;13153;52.316;21.166;2023-05-10T04:41:31;17.40;58.10
25208;DHT22;13153;52.316;21.166;2023-05-10T04:43:56;17.80;56.90
25208;DHT22;13153;52.316;21.166;2023-05-10T04:46:22;17.90;56.60
25208;DHT22;13153;52.316;21.166;2023-05-10T04:48:48;18.50;55.90
25208;DHT22;13153;52.316;21.166;2023-05-10T04:51:14;19.10;54.70
25208;DHT22;13153;52.316;21.166;2023-05-10T04:53:39;19.60;53.60
25208;DHT22;13153;52.316;21.166;2023-05-10T04:56:05;20.00;52.50
25208;DHT22;13153;52.316;21.166;2023-05-10T04:58:32;20.50;52.10
25208;DHT22;13153;52.316;21.166;2023-05-10T05:01:05;21.10;50.50
25208;DHT22;13153;52.316;21.166;2023-05-10T05:03:32;22.10;48.90
25208;DHT22;13153;52.316;21.166;2023-05-10T05:05:58;22.90;47.10
25208;DHT22;13153;52.316;21.166;2023-05-10T05:08:24;23.60;45.80
25208;DHT22;13153;52.316;21.166;2023-05-10T05:10:50;24.10;44.90
25208;DHT22;13153;52.316;21.166;2023-05-10T05:13:16;24.90;43.70
25208;DHT22;13153;52.316;21.166;2023-05-10T05:15:42;25.50;42.20
25208;DHT22;13153;52.316;21.166;2023-05-10T05:18:08;25.90;41.60
25208;DHT22;13153;52.316;21.166;2023-05-10T05:20:33;26.30;41.10
25208;DHT22;13153;52.316;21.166;2023-05-10T05:23:00;26.80;39.90
25208;DHT22;13153;52.316;21.166;2023-05-10T05:25:26;27.20;39.60
25208;DHT22;13153;52.316;21.166;2023-05-10T05:27:52;27.80;38.80
25208;DHT22;13153;52.316;21.166;2023-05-10T05:30:17;28.10;38.60
25208;DHT22;13153;52.316;21.166;2023-05-10T05:32:43;28.60;37.90
25208;DHT22;13153;52.316;21.166;2023-05-10T05:35:09;28.80;37.10
25208;DHT22;13153;52.316;21.166;2023-05-10T05:37:35;29.00;36.30
25208;DHT22;13153;52.316;21.166;2023-05-10T05:40:01;29.30;36.20
25208;DHT22;13153;52.316;21.166;2023-05-10T05:42:27;29.60;36.30
25208;DHT22;13153;52.316;21.166;2023-05-10T05:44:52;30.10;36.20
25208;DHT22;13153;52.316;21.166;2023-05-10T05:47:18;30.20;35.20
25208;DHT22;13153;52.316;21.166;2023-05-10T05:49:44;30.50;34.70
25208;DHT22;13153;52.316;21.166;2023-05-10T05:52:12;30.70;34.30
25208;DHT22;13153;52.316;21.166;2023-05-10T05:54:39;30.80;34.50
25208;DHT22;13153;52.316;21.166;2023-05-10T05:57:05;30.90;34.00
25208;DHT22;13153;52.316;21.166;2023-05-10T05:59:30;31.20;34.30
25208;DHT22;13153;52.316;21.166;2023-05-10T06:01:56;31.00;33.80
25208;DHT22;13153;52.316;21.166;2023-05-10T06:04:22;30.90;33.40
25208;DHT22;13153;52.316;21.166;2023-05-10T06:06:48;31.10;33.40
25208;DHT22;13153;52.316;21.166;2023-05-10T06:09:14;31.30;33.10
25208;DHT22;13153;52.316;21.166;2023-05-10T06:11:39;31.30;32.70
25208;DHT22;13153;52.316;21.166;2023-05-10T06:14:05;31.20;32.30
25208;DHT22;13153;52.316;21.166;2023-05-10T06:16:33;31.50;33.10
25208;DHT22;13153;52.316;21.166;2023-05-10T06:18:59;31.70;31.70
25208;DHT22;13153;52.316;21.166;2023-05-10T06:21:25;31.50;32.30
25208;DHT22;13153;52.316;21.166;2023-05-10T06:23:51;31.40;32.30
25208;DHT22;13153;52.316;21.166;2023-05-10T06:26:17;31.30;32.40
25208;DHT22;13153;52.316;21.166;2023-05-10T06:28:43;31.30;32.10
25208;DHT22;13153;52.316;21.166;2023-05-10T06:31:08;31.40;32.40
25208;DHT22;13153;52.316;21.166;2023-05-10T06:33:36;31.80;31.90
25208;DHT22;13153;52.316;21.166;2023-05-10T06:36:02;32.00;31.50
25208;DHT22;13153;52.316;21.166;2023-05-10T06:38:28;32.00;30.70
25208;DHT22;13153;52.316;21.166;2023-05-10T06:40:54;31.20;30.60
25208;DHT22;13153;52.316;21.166;2023-05-10T06:43:20;30.90;31.60
25208;DHT22;13153;52.316;21.166;2023-05-10T06:45:47;31.10;31.10
25208;DHT22;13153;52.316;21.166;2023-05-10T06:48:13;31.40;31.50
25208;DHT22;13153;52.316;21.166;2023-05-10T06:50:39;31.80;31.20
25208;DHT22;13153;52.316;21.166;2023-05-10T06:53:05;32.20;30.70
25208;DHT22;13153;52.316;21.166;2023-05-10T06:55:30;32.20;31.20
25208;DHT22;13153;52.316;21.166;2023-05-10T06:57:56;32.00;30.70
25208;DHT22;13153;52.316;21.166;2023-05-10T07:00:22;31.90;31.00
25208;DHT22;13153;52.316;21.166;2023-05-10T07:02:48;31.80;30.50
25208;DHT22;13153;52.316;21.166;2023-05-10T07:05:14;31.80;30.40
25208;DHT22;13153;52.316;21.166;2023-05-10T07:07:40;32.10;29.90
25208;DHT22;13153;52.316;21.166;2023-05-10T07:10:06;31.80;29.90
25208;DHT22;13153;52.316;21.166;2023-05-10T07:12:33;31.40;30.80
25208;DHT22;13153;52.316;21.166;2023-05-10T07:14:58;31.10;30.50
25208;DHT22;13153;52.316;21.166;2023-05-10T07:17:24;30.60;31.40
25208;DHT22;13153;52.316;21.166;2023-05-10T07:19:50;30.90;31.40
25208;DHT22;13153;52.316;21.166;2023-05-10T07:22:16;30.70;31.40
25208;DHT22;13153;52.316;21.166;2023-05-10T07:24:43;29.90;30.50
25208;DHT22;13153;52.316;21.166;2023-05-10T07:27:09;29.40;31.90
25208;DHT22;13153;52.316;21.166;2023-05-10T07:29:35;29.80;31.60
25208;DHT22;13153;52.316;21.166;2023-05-10T07:32:01;30.30;31.20
25208;DHT22;13153;52.316;21.166;2023-05-10T07:34:27;30.60;30.80
25208;DHT22;13153;52.316;21.166;2023-05-10T07:36:55;30.80;30.00
25208;DHT22;13153;52.316;21.166;2023-05-10T07:39:23;30.50;29.80
25208;DHT22;13153;52.316;21.166;2023-05-10T07:41:48;29.90;30.00
25208;DHT22;13153;52.316;21.166;2023-05-10T07:44:14;29.30;30.00
25208;DHT22;13153;52.316;21.166;2023-05-10T07:46:40;28.40;31.20
25208;DHT22;13153;52.316;21.166;2023-05-10T07:49:06;28.00;32.00
25208;DHT22;13153;52.316;21.166;2023-05-10T07:51:31;28.10;32.00
25208;DHT22;13153;52.316;21.166;2023-05-10T07:53:57;28.50;32.20
25208;DHT22;13153;52.316;21.166;2023-05-10T07:56:27;28.50;30.30
25208;DHT22;13153;52.316;21.166;2023-05-10T07:58:59;27.90;30.10
25208;DHT22;13153;52.316;21.166;2023-05-10T08:01:25;27.10;31.30
25208;DHT22;13153;52.316;21.166;2023-05-10T08:03:52;26.10;31.90
25208;DHT22;13153;52.316;21.166;2023-05-10T08:06:19;24.90;33.20
25208;DHT22;13153;52.316;21.166;2023-05-10T08:08:46;23.80;35.20
25208;DHT22;13153;52.316;21.166;2023-05-10T08:11:16;22.90;36.70
25208;DHT22;13153;52.316;21.166;2023-05-10T08:13:43;21.90;37.70
25208;DHT22;13153;52.316;21.166;2023-05-10T08:16:12;20.90;39.20
25208;DHT22;13153;52.316;21.166;2023-05-10T08:18:39;19.80;38.60
25208;DHT22;13153;52.316;21.166;2023-05-10T08:21:05;19.10;41.10
25208;DHT22;13153;52.316;21.166;2023-05-10T08:23:32;18.70;42.30
25208;DHT22;13153;52.316;21.166;2023-05-10T08:25:57;18.50;42.60
25208;DHT22;13153;52.316;21.166;2023-05-10T08:28:24;18.30;43.40
25208;DHT22;13153;52.316;21.166;2023-05-10T08:30:50;18.10;42.90
25208;DHT22;13153;52.316;21.166;2023-05-10T08:33:18;18.00;43.40
25208;DHT22;13153;52.316;21.166;2023-05-10T08:35:44;18.00;43.80
25208;DHT22;13153;52.316;21.166;2023-05-10T08:38:10;17.90;44.00
25208;DHT22;13153;52.316;21.166;2023-05-10T08:40:43;17.90;45.50
25208;DHT22;13153;52.316;21.166;2023-05-10T08:43:12;17.90;44.20
25208;DHT22;13153;52.316;21.166;2023-05-10T08:45:42;17.90;44.60
25208;DHT22;13153;52.316;21.166;2023-05-10T08:48:11;17.80;44.90
25208;DHT22;13153;52.316;21.166;2023-05-10T08:50:38;17.60;44.20
25208;DHT22;13153;52.316;21.166;2023-05-10T08:53:13;17.50;45.30
25208;DHT22;13153;52.316;21.166;2023-05-10T08:55:41;17.60;45.40
25208;DHT22;13153;52.316;21.166;2023-05-10T08:58:08;17.60;44.90
25208;DHT22;13153;52.316;21.166;2023-05-10T09:00:35;17.60;45.20
25208;DHT22;13153;52.316;21.166;2023-05-10T09:03:04;17.60;46.10
25208;DHT22;13153;52.316;21.166;2023-05-10T09:05:31;17.70;45.30
25208;DHT22;13153;52.316;21.166;2023-05-10T09:07:57;17.60;44.80
25208;DHT22;13153;52.316;21.166;2023-05-10T09:10:26;17.60;45.60
25208;DHT22;13153;52.316;21.166;2023-05-10T09:12:55;17.70;45.40
25208;DHT22;13153;52.316;21.166;2023-05-10T09:15:22;17.50;45.30
25208;DHT22;13153;52.316;21.166;2023-05-10T09:17:49;17.50;45.40
25208;DHT22;13153;52.316;21.166;2023-05-10T09:20:15;17.40;46.10
25208;DHT22;13153;52.316;21.166;2023-05-10T09:22:42;17.30;46.70
25208;DHT22;13153;52.316;21.166;2023-05-10T09:25:15;17.30;47.60
25208;DHT22;13153;52.316;21.166;2023-05-10T09:27:45;17.30;47.60
25208;DHT22;13153;52.316;21.166;2023-05-10T09:30:33;17.20;46.80
25208;DHT22;13153;52.316;21.166;2023-05-10T09:32:59;17.20;47.70
25208;DHT22;13153;52.316;21.166;2023-05-10T09:35:28;17.30;47.20
25208;DHT22;13153;52.316;21.166;2023-05-10T09:37:57;17.20;46.70
25208;DHT22;13153;52.316;21.166;2023-05-10T09:40:27;17.20;46.00
25208;DHT22;13153;52.316;21.166;2023-05-10T09:43:00;17.30;45.10
25208;DHT22;13153;52.316;21.166;2023-05-10T09:45:32;17.30;45.50
25208;DHT22;13153;52.316;21.166;2023-05-10T09:48:01;17.30;46.10
25208;DHT22;13153;52.316;21.166;2023-05-10T09:50:29;17.30;46.90
25208;DHT22;13153;52.316;21.166;2023-05-10T09:53:00;17.30;46.50
25208;DHT22;13153;52.316;21.166;2023-05-10T09:58:06;17.30;45.50
25208;DHT22;13153;52.316;21.166;2023-05-10T10:00:46;17.20;45.70
25208;DHT22;13153;52.316;21.166;2023-05-10T10:03:19;17.00;45.80
25208;DHT22;13153;52.316;21.166;2023-05-10T10:05:47;17.00;47.10
25208;DHT22;13153;52.316;21.166;2023-05-10T10:08:14;17.00;45.80
25208;DHT22;13153;52.316;21.166;2023-05-10T10:10:41;16.90;45.90
25208;DHT22;13153;52.316;21.166;2023-05-10T10:13:09;16.80;47.00
25208;DHT22;13153;52.316;21.166;2023-05-10T10:15:35;16.90;47.70
25208;DHT22;13153;52.316;21.166;2023-05-10T10:18:02;16.90;47.40
25208;DHT22;13153;52.316;21.166;2023-05-10T10:20:29;16.90;47.10
25208;DHT22;13153;52.316;21.166;2023-05-10T10:22:55;16.90;46.60
25208;DHT22;13153;52.316;21.166;2023-05-10T10:25:21;16.90;47.90
25208;DHT22;13153;52.316;21.166;2023-05-10T10:30:19;16.90;48.00
25208;DHT22;13153;52.316;21.166;2023-05-10T10:33:13;16.80;48.00
25208;DHT22;13153;52.316;21.166;2023-05-10T10:35:43;16.90;47.70
25208;DHT22;13153;52.316;21.166;2023-05-10T10:38:12;16.90;47.70
25208;DHT22;13153;52.316;21.166;2023-05-10T10:40:38;16.80;48.70
25208;DHT22;13153;52.316;21.166;2023-05-10T10:43:24;16.80;47.40
25208;DHT22;13153;52.316;21.166;2023-05-10T10:46:17;16.80;48.30
25208;DHT22;13153;52.316;21.166;2023-05-10T10:49:07;16.70;47.40
25208;DHT22;13153;52.316;21.166;2023-05-10T10:51:39;16.80;47.40
25208;DHT22;13153;52.316;21.166;2023-05-10T10:54:11;16.80;47.70
25208;DHT22;13153;52.316;21.166;2023-05-10T10:56:37;16.70;47.30
25208;DHT22;13153;52.316;21.166;2023-05-10T10:59:03;16.70;47.10
25208;DHT22;13153;52.316;21.166;2023-05-10T11:01:33;16.70;48.90
25208;DHT22;13153;52.316;21.166;2023-05-10T11:06:34;16.60;48.60
25208;DHT22;13153;52.316;21.166;2023-05-10T11:09:07;16.60;49.10
25208;DHT22;13153;52.316;21.166;2023-05-10T11:11:36;16.70;49.10
25208;DHT22;13153;52.316;21.166;2023-05-10T11:14:08;16.70;47.80
25208;DHT22;13153;52.316;21.166;2023-05-10T11:16:44;16.80;49.90
25208;DHT22;13153;52.316;21.166;2023-05-10T11:19:12;16.90;49.00
25208;DHT22;13153;52.316;21.166;2023-05-10T11:21:48;16.90;48.70
25208;DHT22;13153;52.316;21.166;2023-05-10T11:24:36;16.80;48.90
25208;DHT22;13153;52.316;21.166;2023-05-10T11:27:02;16.80;48.80
25208;DHT22;13153;52.316;21.166;2023-05-10T11:29:28;16.80;48.40
25208;DHT22;13153;52.316;21.166;2023-05-10T11:31:57;16.80;49.20
25208;DHT22;13153;52.316;21.166;2023-05-10T11:34:30;16.80;48.60
25208;DHT22;13153;52.316;21.166;2023-05-10T11:36:59;16.80;49.50
25208;DHT22;13153;52.316;21.166;2023-05-10T11:39:27;16.90;47.70
25208;DHT22;13153;52.316;21.166;2023-05-10T11:41:57;16.80;47.70
25208;DHT22;13153;52.316;21.166;2023-05-10T11:44:29;16.80;47.10
25208;DHT22;13153;52.316;21.166;2023-05-10T11:46:59;16.80;48.70
25208;DHT22;13153;52.316;21.166;2023-05-10T11:49:26;16.90;46.90
25208;DHT22;13153;52.316;21.166;2023-05-10T11:51:51;16.80;46.60
25208;DHT22;13153;52.316;21.166;2023-05-10T11:54:17;16.90;47.10
25208;DHT22;13153;52.316;21.166;2023-05-10T11:56:43;16.80;47.30
25208;DHT22;13153;52.316;21.166;2023-05-10T11:59:10;16.80;47.10
25208;DHT22;13153;52.316;21.166;2023-05-10T12:01:36;16.80;47.80
25208;DHT22;13153;52.316;21.166;2023-05-10T12:04:02;16.80;48.00
25208;DHT22;13153;52.316;21.166;2023-05-10T12:06:30;16.80;48.60
25208;DHT22;13153;52.316;21.166;2023-05-10T12:08:58;16.80;48.60
25208;DHT22;13153;52.316;21.166;2023-05-10T12:11:26;16.90;48.70
25208;DHT22;13153;52.316;21.166;2023-05-10T12:13:53;17.00;48.30
25208;DHT22;13153;52.316;21.166;2023-05-10T12:16:22;17.10;48.20
25208;DHT22;13153;52.316;21.166;2023-05-10T12:18:53;17.10;48.30
25208;DHT22;13153;52.316;21.166;2023-05-10T12:21:21;17.20;48.80
25208;DHT22;13153;52.316;21.166;2023-05-10T12:23:50;17.10;48.00
25208;DHT22;13153;52.316;21.166;2023-05-10T12:26:24;17.10;48.10
25208;DHT22;13153;52.316;21.166;2023-05-10T12:28:53;17.10;48.60
25208;DHT22;13153;52.316;21.166;2023-05-10T12:31:19;17.10;48.70
25208;DHT22;13153;52.316;21.166;2023-05-10T12:33:46;17.00;48.30
25208;DHT22;13153;52.316;21.166;2023-05-10T12:36:14;17.00;47.90
25208;DHT22;13153;52.316;21.166;2023-05-10T12:38:45;17.00;49.20
25208;DHT22;13153;52.316;21.166;2023-05-10T12:41:15;17.00;48.90
25208;DHT22;13153;52.316;21.166;2023-05-10T12:43:42;17.10;49.10
25208;DHT22;13153;52.316;21.166;2023-05-10T12:46:13;17.10;49.50
25208;DHT22;13153;52.316;21.166;2023-05-10T12:48:40;17.10;48.60
25208;DHT22;13153;52.316;21.166;2023-05-10T12:51:08;17.10;48.90
25208;DHT22;13153;52.316;21.166;2023-05-10T12:53:35;17.10;49.40
25208;DHT22;13153;52.316;21.166;2023-05-10T12:56:02;17.00;49.30
25208;DHT22;13153;52.316;21.166;2023-05-10T12:58:28;16.90;50.10
25208;DHT22;13153;52.316;21.166;2023-05-10T13:00:53;17.00;50.50
25208;DHT22;13153;52.316;21.166;2023-05-10T13:03:21;17.00;49.80
25208;DHT22;13153;52.316;21.166;2023-05-10T13:05:48;17.00;50.40
25208;DHT22;13153;52.316;21.166;2023-05-10T13:08:14;17.00;49.70
25208;DHT22;13153;52.316;21.166;2023-05-10T13:10:40;17.00;50.00
25208;DHT22;13153;52.316;21.166;2023-05-10T13:13:06;17.00;49.40
25208;DHT22;13153;52.316;21.166;2023-05-10T13:15:34;17.00;50.50
25208;DHT22;13153;52.316;21.166;2023-05-10T13:18:00;17.00;51.00
25208;DHT22;13153;52.316;21.166;2023-05-10T13:20:26;17.00;50.70
25208;DHT22;13153;52.316;21.166;2023-05-10T13:22:52;17.00;50.60
25208;DHT22;13153;52.316;21.166;2023-05-10T13:25:18;17.10;50.20
25208;DHT22;13153;52.316;21.166;2023-05-10T13:27:44;17.10;50.20
25208;DHT22;13153;52.316;21.166;2023-05-10T13:30:11;17.00;49.90
25208;DHT22;13153;52.316;21.166;2023-05-10T13:32:37;17.00;50.00
25208;DHT22;13153;52.316;21.166;2023-05-10T13:35:04;17.00;50.30
25208;DHT22;13153;52.316;21.166;2023-05-10T13:37:31;17.00;49.10
25208;DHT22;13153;52.316;21.166;2023-05-10T13:40:01;17.00;49.10
25208;DHT22;13153;52.316;21.166;2023-05-10T13:42:27;17.00;48.90
25208;DHT22;13153;52.316;21.166;2023-05-10T13:44:53;17.00;48.50
25208;DHT22;13153;52.316;21.166;2023-05-10T13:47:19;17.00;48.20
25208;DHT22;13153;52.316;21.166;2023-05-10T13:49:47;17.00;48.30
25208;DHT22;13153;52.316;21.166;2023-05-10T13:52:13;16.90;48.50
25208;DHT22;13153;52.316;21.166;2023-05-10T13:54:39;16.90;48.00
25208;DHT22;13153;52.316;21.166;2023-05-10T13:57:05;16.90;48.30
25208;DHT22;13153;52.316;21.166;2023-05-10T13:59:34;17.00;48.30
25208;DHT22;13153;52.316;21.166;2023-05-10T14:02:00;17.00;48.30
25208;DHT22;13153;52.316;21.166;2023-05-10T14:04:29;17.00;48.30
25208;DHT22;13153;52.316;21.166;2023-05-10T14:06:56;17.10;48.30
25208;DHT22;13153;52.316;21.166;2023-05-10T14:09:22;17.10;48.30
25208;DHT22;13153;52.316;21.166;2023-05-10T14:11:48;17.10;48.00
25208;DHT22;13153;52.316;21.166;2023-05-10T14:14:14;17.10;47.70
25208;DHT22;13153;52.316;21.166;2023-05-10T14:16:44;17.10;48.10
25208;DHT22;13153;52.316;21.166;2023-05-10T14:19:10;17.10;47.90
25208;DHT22;13153;52.316;21.166;2023-05-10T14:21:37;17.10;47.30
25208;DHT22;13153;52.316;21.166;2023-05-10T14:24:04;17.00;47.50
25208;DHT22;13153;52.316;21.166;2023-05-10T14:26:30;17.00;48.00
25208;DHT22;13153;52.316;21.166;2023-05-10T14:28:57;17.00;47.60
25208;DHT22;13153;52.316;21.166;2023-05-10T14:31:22;17.00;48.40
25208;DHT22;13153;52.316;21.166;2023-05-10T14:33:50;17.00;47.10
25208;DHT22;13153;52.316;21.166;2023-05-10T14:36:16;17.00;48.10
25208;DHT22;13153;52.316;21.166;2023-05-10T14:38:43;17.00;47.40
25208;DHT22;13153;52.316;21.166;2023-05-10T14:41:09;17.00;47.40
25208;DHT22;13153;52.316;21.166;2023-05-10T14:43:40;17.00;47.50
25208;DHT22;13153;52.316;21.166;2023-05-10T14:46:06;16.90;47.00
25208;DHT22;13153;52.316;21.166;2023-05-10T14:48:32;16.90;46.90
25208;DHT22;13153;52.316;21.166;2023-05-10T14:50:58;16.80;47.60
25208;DHT22;13153;52.316;21.166;2023-05-10T14:53:24;16.90;48.40
25208;DHT22;13153;52.316;21.166;2023-05-10T14:55:50;16.90;47.50
25208;DHT22;13153;52.316;21.166;2023-05-10T14:58:16;16.90;47.20
25208;DHT22;13153;52.316;21.166;2023-05-10T15:00:42;16.80;47.90
25208;DHT22;13153;52.316;21.166;2023-05-10T15:03:09;16.90;47.80
25208;DHT22;13153;52.316;21.166;2023-05-10T15:05:35;16.90;47.90
25208;DHT22;13153;52.316;21.166;2023-05-10T15:08:03;16.90;47.50
25208;DHT22;13153;52.316;21.166;2023-05-10T15:10:30;16.90;47.40
25208;DHT22;13153;52.316;21.166;2023-05-10T15:12:57;16.80;47.40
25208;DHT22;13153;52.316;21.166;2023-05-10T15:15:22;16.80;47.50
25208;DHT22;13153;52.316;21.166;2023-05-10T15:17:48;16.80;48.10
25208;DHT22;13153;52.316;21.166;2023-05-10T15:20:16;16.80;47.50
25208;DHT22;13153;52.316;21.166;2023-05-10T15:22:42;16.80;48.10
25208;DHT22;13153;52.316;21.166;2023-05-10T15:25:08;16.80;48.20
25208;DHT22;13153;52.316;21.166;2023-05-10T15:27:35;16.80;48.00
25208;DHT22;13153;52.316;21.166;2023-05-10T15:30:02;16.80;48.00
25208;DHT22;13153;52.316;21.166;2023-05-10T15:32:28;16.80;48.50
25208;DHT22;13153;52.316;21.166;2023-05-10T15:34:57;16.80;49.00
25208;DHT22;13153;52.316;21.166;2023-05-10T15:37:23;16.80;47.60
25208;DHT22;13153;52.316;21.166;2023-05-10T15:39:49;16.80;47.10
25208;DHT22;13153;52.316;21.166;2023-05-10T15:42:15;16.70;47.90
25208;DHT22;13153;52.316;21.166;2023-05-10T15:44:41;16.70;47.20
25208;DHT22;13153;52.316;21.166;2023-05-10T15:47:09;16.70;47.00